createdAt,value
2022-12-05T00:00:05.979Z,0.10
2022-12-05T00:05:08.205Z,0.00
2022-12-05T00:10:10.522Z,0.00
2022-12-05T00:15:12.662Z,0.10
2022-12-05T00:20:14.584Z,0.00
2022-12-05T00:25:16.465Z,0.10
2022-12-05T00:30:18.404Z,0.10
2022-12-05T00:35:20.270Z,0.00
2022-12-05T00:40:22.122Z,0.00
2022-12-05T00:45:23.918Z,0.10
2022-12-05T00:50:25.691Z,0.00
2022-12-05T00:55:27.474Z,0.00
2022-12-05T01:00:29.301Z,0.00
2022-12-05T01:05:33.594Z,0.00
2022-12-05T01:10:35.483Z,0.00
2022-12-05T01:15:37.729Z,0.00
2022-12-05T01:20:40.635Z,0.00
2022-12-05T01:25:44.986Z,0.00
2022-12-05T01:30:49.311Z,0.00
2022-12-05T01:35:51.111Z,0.00
2022-12-05T01:41:03.995Z,0.00
2022-12-05T01:46:06.126Z,0.00
2022-12-05T01:51:08.047Z,0.00
2022-12-05T01:56:10.240Z,0.00
2022-12-05T02:01:15.758Z,0.10
2022-12-05T02:06:18.389Z,0.00
2022-12-05T02:11:23.014Z,0.00
2022-12-05T02:16:55.923Z,0.00
2022-12-05T02:22:45.017Z,0.10
2022-12-05T02:28:24.520Z,0.00
2022-12-05T02:33:36.129Z,0.00
2022-12-05T02:39:02.698Z,0.00
2022-12-05T02:44:10.039Z,0.10
2022-12-05T02:49:16.677Z,0.10
2022-12-05T02:54:23.966Z,0.10
2022-12-05T02:59:25.777Z,0.10
2022-12-05T03:04:30.033Z,0.10
2022-12-05T03:10:02.829Z,0.10
2022-12-05T03:15:19.118Z,0.10
2022-12-05T03:20:36.102Z,0.10
2022-12-05T03:26:00.914Z,0.10
2022-12-05T03:31:11.143Z,0.10
2022-12-05T03:36:18.555Z,0.10
2022-12-05T03:41:41.541Z,0.10
2022-12-05T03:47:12.438Z,0.20
2022-12-05T03:52:30.413Z,0.20
2022-12-05T03:57:47.314Z,0.10
2022-12-05T04:02:58.552Z,0.20
2022-12-05T04:08:04.532Z,0.10
2022-12-05T04:13:17.889Z,0.20
2022-12-05T04:18:22.984Z,0.10
2022-12-05T04:23:26.564Z,0.20
2022-12-05T04:28:36.716Z,0.10
2022-12-05T04:33:41.252Z,0.20
2022-12-05T04:38:49.135Z,0.20
2022-12-05T04:43:54.201Z,0.20
2022-12-05T04:49:00.727Z,0.10
2022-12-05T04:54:08.444Z,0.10
2022-12-05T04:59:10.770Z,0.10
2022-12-05T05:04:18.576Z,0.00
2022-12-05T05:09:20.488Z,0.00
2022-12-05T05:14:22.287Z,0.10
2022-12-05T05:19:24.738Z,0.10
2022-12-05T05:24:26.557Z,0.00
2022-12-05T05:29:28.352Z,0.10
2022-12-05T05:34:30.242Z,0.10
2022-12-05T05:39:32.282Z,0.10
2022-12-05T05:44:34.161Z,0.10
2022-12-05T05:49:36.031Z,0.00
2022-12-05T05:54:37.850Z,0.10
2022-12-05T05:59:39.705Z,0.00
2022-12-05T06:04:41.588Z,0.00
2022-12-05T06:09:43.463Z,0.00
2022-12-05T06:14:47.129Z,0.00
2022-12-05T06:19:48.934Z,0.10
2022-12-05T06:24:50.989Z,0.10
2022-12-05T06:29:53.074Z,0.10
2022-12-05T06:34:54.870Z,0.10
2022-12-05T06:39:57.128Z,0.10
2022-12-05T06:44:59.170Z,0.10
2022-12-05T06:50:00.998Z,0.10
2022-12-05T06:55:03.369Z,0.10
2022-12-05T07:00:24.666Z,0.10
2022-12-05T07:05:26.476Z,0.20
2022-12-05T07:10:28.298Z,0.20
2022-12-05T07:15:30.079Z,0.20
2022-12-05T07:21:03.578Z,0.10
2022-12-05T07:25:54.306Z,0.20
2022-12-05T07:31:01.173Z,0.30
2022-12-05T07:36:09.250Z,0.30
2022-12-05T07:41:16.511Z,0.40
2022-12-05T07:46:18.461Z,0.40
2022-12-05T07:51:20.918Z,0.40
2022-12-05T07:56:22.927Z,0.30
2022-12-05T08:01:26.956Z,0.40
2022-12-05T08:06:31.170Z,0.40
2022-12-05T08:11:36.094Z,0.40
2022-12-05T08:16:38.004Z,0.50
2022-12-05T08:21:40.389Z,0.60
2022-12-05T08:26:42.322Z,0.70
2022-12-05T08:31:50.727Z,0.70
2022-12-05T08:37:13.133Z,0.70
2022-12-05T08:43:02.577Z,0.90
2022-12-05T08:48:05.628Z,1.10
2022-12-05T08:53:08.067Z,1.00
2022-12-05T08:58:09.908Z,1.00
2022-12-05T09:03:12.315Z,1.10
2022-12-05T09:08:14.197Z,1.20
2022-12-05T09:13:16.104Z,1.40
2022-12-05T09:18:17.954Z,1.50
2022-12-05T09:23:19.846Z,1.40
2022-12-05T09:28:21.792Z,1.30
2022-12-05T09:33:23.814Z,1.30
2022-12-05T09:38:25.628Z,1.40
2022-12-05T09:43:56.890Z,1.50
2022-12-05T09:48:59.436Z,1.70
2022-12-05T09:54:02.817Z,1.60
2022-12-05T09:59:05.712Z,1.80
2022-12-05T10:04:34.916Z,1.70
2022-12-05T10:09:45.463Z,1.70
2022-12-05T10:15:05.542Z,1.60
2022-12-05T10:20:28.622Z,1.90
2022-12-05T10:25:32.451Z,2.00
2022-12-05T10:30:36.875Z,1.90
2022-12-05T10:35:40.566Z,2.10
2022-12-05T10:40:46.882Z,2.20
2022-12-05T10:45:49.148Z,2.40
2022-12-05T10:50:55.149Z,2.50
2022-12-05T11:01:19.549Z,2.90
2022-12-05T11:06:30.508Z,2.60
2022-12-05T11:11:33.972Z,2.70
2022-12-05T11:16:38.810Z,2.80
2022-12-05T11:21:43.649Z,3.00
2022-12-05T11:26:45.789Z,3.10
2022-12-05T11:31:52.363Z,3.10
2022-12-05T11:37:05.019Z,3.10
2022-12-05T11:42:32.816Z,3.10
2022-12-05T11:47:53.586Z,3.30
2022-12-05T11:53:20.981Z,3.40
2022-12-05T11:58:54.320Z,3.70
2022-12-05T12:04:18.183Z,4.00
2022-12-05T12:09:39.738Z,4.10
2022-12-05T12:15:08.782Z,4.60
2022-12-05T12:20:18.771Z,4.40
2022-12-05T12:25:27.573Z,4.40
2022-12-05T12:30:48.870Z,4.60
2022-12-05T12:35:54.833Z,4.70
2022-12-05T12:41:09.733Z,4.80
2022-12-05T12:46:49.096Z,4.90
2022-12-05T12:51:54.038Z,5.10
2022-12-05T12:57:02.108Z,5.10
2022-12-05T13:02:25.468Z,5.40
2022-12-05T13:07:42.880Z,5.10
2022-12-05T13:12:48.313Z,5.00
2022-12-05T13:17:51.499Z,4.90
2022-12-05T13:22:54.609Z,4.90
2022-12-05T13:28:04.582Z,4.90
2022-12-05T13:33:09.843Z,4.90
2022-12-05T13:39:00.365Z,4.90
2022-12-05T13:44:12.344Z,4.80
2022-12-05T13:49:32.641Z,4.80
2022-12-05T13:54:41.769Z,4.90
2022-12-05T14:00:07.835Z,4.90
2022-12-05T14:05:19.140Z,4.90
2022-12-05T14:10:28.812Z,5.00
2022-12-05T14:15:33.830Z,5.00
2022-12-05T14:20:46.849Z,4.90
2022-12-05T14:25:59.584Z,4.90
2022-12-05T14:31:40.683Z,5.00
2022-12-05T14:36:57.674Z,4.90
2022-12-05T14:42:01.771Z,4.90
2022-12-05T14:47:06.325Z,4.80
2022-12-05T14:52:12.188Z,4.60
2022-12-05T14:57:19.023Z,4.80
2022-12-05T15:02:27.233Z,4.80
2022-12-05T15:07:38.878Z,4.80
2022-12-05T15:12:40.847Z,4.50
2022-12-05T15:17:50.168Z,4.60
2022-12-05T15:22:52.028Z,4.70
2022-12-05T15:28:04.679Z,4.70
2022-12-05T15:33:13.289Z,4.60
2022-12-05T15:38:27.743Z,4.30
2022-12-05T15:43:32.552Z,4.40
2022-12-05T15:48:34.509Z,4.30
2022-12-05T15:53:53.311Z,4.40
2022-12-05T15:59:08.291Z,4.50
2022-12-05T16:04:16.760Z,4.50
2022-12-05T16:09:28.820Z,4.40
2022-12-05T16:14:58.869Z,4.30
2022-12-05T16:20:22.081Z,4.20
2022-12-05T16:25:35.298Z,4.10
2022-12-05T16:30:38.043Z,4.20
2022-12-05T16:35:42.436Z,4.20
2022-12-05T16:40:50.070Z,4.40
2022-12-05T16:45:54.224Z,4.40
2022-12-05T16:51:11.327Z,4.40
2022-12-05T16:56:23.337Z,4.50
2022-12-05T17:01:27.464Z,4.30
2022-12-05T17:06:29.362Z,4.30
2022-12-05T17:11:34.197Z,4.20
2022-12-05T17:16:36.048Z,4.10
2022-12-05T17:21:39.283Z,4.10
2022-12-05T17:26:41.138Z,4.00
2022-12-05T17:31:43.147Z,3.90
2022-12-05T17:36:45.541Z,3.80
2022-12-05T17:41:47.367Z,3.70
2022-12-05T17:46:49.391Z,3.80
2022-12-05T17:52:20.664Z,3.90
2022-12-05T17:57:15.775Z,3.80
2022-12-05T18:02:19.770Z,3.80
2022-12-05T18:07:21.722Z,3.80
2022-12-05T18:12:23.807Z,3.90
2022-12-05T18:17:27.107Z,3.90
2022-12-05T18:22:28.871Z,3.80
2022-12-05T18:27:31.494Z,4.00
2022-12-05T18:32:33.720Z,3.90
2022-12-05T18:37:37.275Z,3.80
2022-12-05T18:42:39.096Z,4.00
2022-12-05T18:47:40.966Z,4.10
2022-12-05T18:52:42.796Z,4.10
2022-12-05T18:57:44.712Z,4.00
2022-12-05T19:02:48.531Z,3.90
2022-12-05T19:07:54.337Z,3.60
2022-12-05T19:12:57.102Z,3.40
2022-12-05T19:17:59.231Z,3.70
2022-12-05T19:23:01.368Z,3.80
2022-12-05T19:28:03.305Z,3.50
2022-12-05T19:33:05.250Z,3.60
2022-12-05T19:38:07.058Z,3.60
2022-12-05T19:43:08.842Z,3.70
2022-12-05T19:48:11.079Z,3.60
2022-12-05T19:53:12.908Z,3.60
2022-12-05T19:58:18.542Z,3.60
2022-12-05T20:03:20.583Z,3.70
2022-12-05T20:08:22.542Z,3.80
2022-12-05T20:13:46.062Z,3.70
2022-12-05T20:18:46.373Z,3.60
2022-12-05T20:23:48.503Z,3.80
2022-12-05T20:28:50.533Z,3.80
2022-12-05T20:33:53.973Z,3.70
2022-12-05T20:39:00.817Z,3.60
2022-12-05T20:44:05.488Z,3.40
2022-12-05T20:49:08.644Z,3.50
2022-12-05T20:54:12.858Z,3.60
2022-12-05T20:59:15.165Z,3.60
2022-12-05T21:04:17.329Z,3.50
2022-12-05T21:09:26.683Z,3.40
2022-12-05T21:14:28.586Z,3.60
2022-12-05T21:19:30.564Z,3.70
2022-12-05T21:24:32.416Z,3.70
2022-12-05T21:29:34.271Z,3.80
2022-12-05T21:34:36.095Z,3.80
2022-12-05T21:39:37.904Z,3.90
2022-12-05T21:44:39.765Z,3.80
2022-12-05T21:49:41.725Z,3.40
2022-12-05T21:55:15.122Z,3.30
2022-12-05T22:00:28.955Z,3.30
2022-12-05T22:05:35.329Z,3.20
2022-12-05T22:10:38.741Z,3.40
2022-12-05T22:15:42.012Z,3.50
2022-12-05T22:20:45.081Z,3.50
2022-12-05T22:26:02.619Z,3.50
2022-12-05T22:31:09.445Z,3.50
2022-12-05T22:36:17.409Z,3.50
2022-12-05T22:41:23.590Z,3.60
2022-12-05T22:46:33.531Z,3.40
2022-12-05T22:51:48.433Z,3.30
2022-12-05T22:56:53.195Z,3.20
2022-12-05T23:01:56.384Z,3.00
2022-12-05T23:06:59.723Z,3.00
2022-12-05T23:12:02.197Z,3.00
2022-12-05T23:17:04.021Z,3.00
2022-12-05T23:22:05.894Z,3.00
2022-12-05T23:27:07.677Z,3.10
2022-12-05T23:32:09.461Z,3.30
2022-12-05T23:37:11.305Z,3.40
2022-12-05T23:42:15.312Z,3.50
2022-12-05T23:47:17.408Z,3.50
2022-12-05T23:52:19.448Z,3.30
2022-12-05T23:57:21.262Z,3.30
